Timeline UpdatesTrip UpdatesNews PostsPvt Posts♥♥Travel TipsAdmin PostsConv PostsFollowed PostsChat RequestsBlog PostsPNR Posts

Disclaimer
Search
 
 
Mon Nov 24, 2014 00:19:24 ISTHomeTrainsΣChainsAtlasPNRForumGalleryNewsFAQTripsMembersLoginFeedback
No Recent News for this Train
Other Trains in the News **new
Latest...
.
Fri Dec 13, 2013 (03:40PM)
⇐ Return Journey: Train# 12833

12834/Howrah - Ahmedabad SF Express

Time-Table HAS CHANGED.
Sep 03 2014 (10:29AM)
Change Departure Station:
Change Arrival Station:
Post a Train Travel TipPost a Train Travel Tip **new
Post a Comment/Question/Picture/VideoPost a Comment/Question/Picture/Video
Pantry/Catering
✓ Pantry Car Avbl
✓ Catering Avbl
RSA - Rake Sharing
Rake/Coach Composition
LOCO(SRC WAP 4E)-SLR-GEN-S1-S2-S3-S4-S5-S6-S7-S8-S9-S10-S11-S12-PC-S13-B1-B2-A1-A2-GEN-SLR
Loco
Loco: SRC WAP 4 ... Entry# 289462
News    PNR    Forum    Time-Table    Availability    Fare Chart    Map    Arr/Dep History    Trips    Gallery    ΣChains    X/O    Timeline    
Travel Time: 3h 2m    4 halts    Distance: 170 km    Avg Speed: 56 km/hr
Type: SuperFast
Zone: SER/South Eastern
Departs @ 09:58 (Avg 25m late)
Platform# 3
SMTWTFS
Bharuch Junction/BH 
Arrives @ 13:00 (Avg 16m late)
Platform# 5
SMTWTFS
Ahmedabad Junction/ADI 

4 halts. 34 intermediate Stations between Bharuch Junction and Ahmedabad Junction

Show ALL intermediate Stations  Show Old Time-Table

#TrkCodeStation NameX/OArrivesAvgDepartsAvgHaltPFDay#KmSpeedElevZoneAddress
1/==/HWHKolkata Howrah Junction (23)  -23:55+2221-1917.96510mERHowrah 711101, West Bengal
2/==/MCAMecheda (6)  00:50 00:49+800:52 00:50+162 1m--2-1859.63710mSERdist - purba Medinipur, West Bengal
3/==/PKUPanskura Junction (6)  01:13 01:10+801:15 01:13+82 3m--2-1847.2579mSERPanskura, West Bengal
4/==/KGPKharagpur Junction (10)  02:00-102:05+25m32-1802.87742mSERDist: West Medinipur, West Bengal
5/==/TATATatanagar Junction (5)XO  03:50+303:55+55m32-1667.867164mSER91-657-2423026, Jharkhand
6/==/CKPChakradharpur (3)  04:50 04:51+404:57 04:58+57m12-1605.579235mSERChakradharpur (West Singhbhum), Jharkhand
7/==/ROURourkela Junction (5)X  06:15+1106:30+1115m32-1504.464198mSERRourkela, Odisha
8/==/GPRaj Gangpur (3)  06:59 06:58+1507:00 06:59+161m12-1474.672237mSERRaj Ganpur, Odisha
9/==/BMBBamra (3)  07:29 07:28+1407:30 07:29+141m--2-1440.056259mSERBamra PH : 06642-229268, Odisha
10/==/JSGJharsuguda Junction (5)X  08:08+808:10+112m12-1403.588236mSERJharsuguda, Odisha
11/==/BRJNBrajrajnagar  08:18+2008:20+202m--2-1391.867212mSECRBrajrajnagar, Odisha
12/==/BPHBelpahar (2)  08:28+2108:30+212m--2-1382.985235mSECRBelpahar, Odisha
13/==/RIGRaigarh (3)X  09:06+2309:11+235m22-1331.893220mSECRRaigarh, Chhattisgarh
14/==/KHSKharsiaX  09:33+3509:35+352m22-1297.991 SECRNational Highway 200, Chhattisgarh
15/==/BUABaradwarX  09:55+4109:57+412m22-1267.655 SECRJanjgir-Champa, Chhattisgarh
16/==/CPHChampa Junction (3)X  10:14+4310:19+415m22-1252.172264mSECRNational Highway 200 (07819-245767), Chhattisgarh
17/==/NIANaila (3)X  10:28+4310:30+432m--2-1241.275273mSECRJanjgir, Chhattisgarh
18/==/AKTAkaltara (4)  10:42+4210:44+422m22-1226.329284mSECRDist. Janjgir Champa, Chhattisgarh
19/==/BSPBilaspur Junction (8)X  11:40+1211:55+2015m52-1199.177271mSECRBilaspur, Chhattisgarh
20/==/BYTBhatapara (4)X  12:31+2312:33+232m22-1152.987270mSECRBanjari Road, Chhattisgarh
21/==/TLDTilda (3)X  12:51+2312:53+222m--2-1126.855 SECRBanjari Rd, Chhattisgarh
22/==/RRaipur Junction (6)X  13:35+2313:45+2210m12-1088.780297mSECRRaipur, Chhattisgarh
23/==/BPHBBhilai Power House (3)XO  14:06+714:08+72m22-1060.717312mSECRBhilai, Chhattisgarh
24/==/DURGDurg Junction (6)X  14:40+1114:45+125m12-1051.787299mSECRPh: 91-788-2322059, Chhattisgarh
25/==/RJNRaj Nandgaon (3)  15:06+2015:08+202m22-1021.286313mSECRRajnandgaon, Chhattisgarh
26/==/DGGDongargarh (2)  15:30+2715:32+272m22-989.776 SECRDongargarh, Chhattisgarh
27/==/AGNAmgaon (2)X  16:12+3516:14+352m22-939.247317mSECRGondia, Maharashtra
28/==/GGondia Junction (7)X  16:43+2316:48+245m22-916.492316mSECRGondia 441601, Maharashtra
29/==/TROTirora (3)  17:07+3117:09+302m22-887.172282mSECRDist Gondia, Maharashtra
30/==/TMRTumsar Road (5)  17:26+2817:28+282m12-866.872267mSECRDistt. Bhandara, Maharashtra
31/==/BRDBhandara Road (3)X  17:43+2717:45+272m22-848.893266mSECRState Highway 252 Bhandara District, Maharashtra
32/==/KPKamptee (3)X  18:16+2818:18+282m22-800.920290mSECRKamptee, Maharashtra
33/==/NGPNagpur Junction (8)X  19:00+1919:10+2210m32-786.620314mCRNagpur 440001, Maharashtra
34/==/AJNIAjni (3)X  19:19+2519:20+261m32-783.571310mCRNagpur 440003, Maharashtra
35/==/WRWardha Junction (4)X  20:24+2320:27+233m22-707.781289mCRWardha 442001, Maharashtra
36/==/PLOPulgaon Junction (3)  20:49+2320:50+251m22-678.167273mCRPulgaon, Maharashtra
37/==/DMNDhamangaon (2)  21:08+2421:09+251m--2-658.267300mCRDhamangaon, Maharashtra
38/==/CNDChandur (2)X  21:24+2421:25+251m22-641.538331mCRAmravati Distt, Maharashtra
39/==/BDBadnera Junction (4)X  22:10+1822:15+195m12-612.886335mCRBadnera (Amravati) 444701, Maharashtra
40/==/MZRMurtizapur (3)X  22:44+2322:45+241m--2-570.974303mCRMurtajapur, Maharashtra
41/==/AKAkola Junction (7)  23:15+2623:20+275m12-533.893284mCRAkola-444001, Maharashtra
42/==/SEGShegaon (2)  23:44+3623:45+381m22-496.668281mCRShegaon 444203, Maharashtra
43/==/JMJalamb Junction (3)  23:56+3723:58+382m12-484.267259mCRJalamb, Maharashtra
44/==/NNNandura (2)  00:09+3700:10+421m13-472.070267mCRNandura, Maharashtra
45/==/MKUMalkapur (2)  00:34+4000:35+421m23-444.150252mCRMalkapur, Maharashtra
46/==/BSLBhusaval Junction (8)XO  01:35+2801:45+2810m43-394.241208mCRBhusaval 425201, Maharashtra
47/==/JLJalgaon Junction (4)X  02:20+2102:25+205m23-370.151213mCRJalgaon 425001, Maharashtra
48%==/DXGDharangaon (2)  03:00+3103:01+311m13-340.351217mWRDharangaon, Maharashtra
49/==%ANAmalner (2)  03:30+2603:33+273m13-315.473188mWRAmalner, Maharashtra
50%==%SNKSindkheda (1)  04:07+3404:08+351m13-273.945178mWRState Highway 11, Maharashtra
51%=-/DDEDondaicha (2)X  04:34+3004:35+321m23-254.549163mWRDondaicha, Maharashtra
52/-=%NDBNandurbar (3)  05:17+2505:25+248m13-220.150203mWRNandurbar, Maharashtra
53/==/NWUNavapur (2)  06:35+2306:37+242m--3-162.255124mWRNavapur, Gujarat
54/==%VYAVyara (2)  07:23+2207:25+232m13-120.26090mWRVyara, Gujarat
55%==%MIDMadhi (1)  07:40+2507:42+252m13-105.35945mWRMadhi, Gujarat
56%==%BIYBardoli (2)X  07:57+2607:59+262m--3-90.53735mWRNear Bardoli Sugar Factory Bardoli, Gujarat
57/==%UDNUdhna Junction (3)XO  08:43+1508:45+162m13-63.31416mWRUdhna 394210, Gujarat
58/==/STSurat (4)X  09:02+1209:12+1310m13-59.38119mWRSurat 395001, Gujarat
59/==/BHBharuch Junction (5)»X  09:56+2509:58+252m330.07419mWRBharuch, Gujarat
60/==/BRCVadodara Junction (7)X  10:55+3211:00+325m3370.57236mWRVadodara 390005, Gujarat
61/==/ANNDAnand Junction (6)  11:30+5111:32+532m23106.35344mWRAnand, Gujarat
62/==/NDNadiad Junction (4)X  11:53+5111:55+512m--3124.85837mWRNadiad, Gujarat
63/==/MANManinagar (2)X  12:39+2012:41+192m13167.21050mWRAhmadabad, Gujarat
64/==/ADIAhmedabad Junction (12)•  13:00+16-53170.3-51mWRAhmedabad, Gujarat
Scroll to Top
Scroll to Bottom